Fort Lauderdale Hollywood International Airport

Date: 2024-06-11 12:34:00Z

Type: SPECI

Weather: Thunderstorms

Winds: 200° at 7 kts

Visibility: 2

Ceiling (AGL FT): Clouds BROKEN at 1500, BROKEN at 2100, OVERCAST at 5000

RAW METAR: KFLL 111234Z 20007KT 2SM R10L/1600V4500FT TSRA BR BKN015 BKN021CB OVC050 26/24 A2990 RMK AO2 RAB22 TSB21 OCNL LTGICCG ALQDS TS ALQDS MOV NE P0056 T02560244

project-image